Latest Coastal Weather Observations for Horn Island

IDQ60701

Issued at 8:12 am EST Sunday 2 October 2016 (issued every 10 minutes, with the page automatically refreshed every 10 minutes)

About coastal observations | Map of coastal stations | Coastal observations for QLD | Marine services | Other Formats
Station Details ID: 027058 Name: HORN ISLAND Lat: -10.58 Lon: 142.29 Height: 4.0 m
Data from the previous 72 hours. | See also: Recent months at Horn Island
Date/Time
EST
Temp
°C
Wind Pressure Rain since
9am
mm
Weather Cloud Vis
km
Sea
Height
m
Swell
Dir  Spd
kts
Gust
kts
hPa Trend Height
m
Period
s
Dir
02/08:00am 28.0 SSE 6 8 1012.4 - 0.0 - Partly cloudy 10 - - - -
02/07:55am 27.6 SSE 6 9 1012.4 - 0.0 - Partly cloudy 10 - - - -
02/07:30am 27.2 SSE 7 8 1011.9 - 0.0 - Partly cloudy 10 - - - -
02/07:00am 27.0 SSE 7 9 1011.6 - 0.0 - Partly cloudy 10 - - - -
02/06:30am 26.6 SE 6 8 1011.1 - 0.0 - Partly cloudy 10 - - - -
02/06:00am 26.7 SSE 6 9 1010.6 - 0.0 - Mostly cloudy 10 - - - -
02/05:50am 26.7 SSE 6 9 1010.6 - 0.0 - Partly cloudy 10 - - - -
02/05:30am 27.0 SE 5 8 1010.3 - 0.0 - Partly cloudy 10 - - - -
02/05:18am 27.0 SE 5 7 1010.1 - 0.0 - Partly cloudy 10 - - - -
02/05:00am 27.0 ESE 6 9 1010.0 - 0.0 - Partly cloudy 10 - - - -
02/04:30am 26.9 E 8 11 1009.8 - 0.0 - Partly cloudy 10 - - - -
02/04:00am 26.9 ESE 9 13 1009.6 - 0.0 - Partly cloudy 10 - - - -
02/03:30am 27.1 ESE 10 13 1009.6 - 0.0 - Partly cloudy 10 - - - -
02/03:00am 27.2 E 11 15 1009.8 - 0.0 - Cloudy 10 - - - -
02/02:30am 27.3 E 9 14 1009.9 - 0.0 - Partly cloudy 10 - - - -
02/02:22am 27.3 E 9 12 1009.9 - 0.0 - Partly cloudy 10 - - - -
02/02:02am 27.1 E 11 14 1009.8 - 0.0 - Partly cloudy 10 - - - -
02/02:00am 27.1 E 11 14 1009.8 - 0.0 - Partly cloudy 10 - - - -
02/01:43am 27.1 E 11 15 1009.8 - 0.0 - Partly cloudy 10 - - - -
02/01:30am 27.1 E 11 15 1009.9 - 0.0 - Partly cloudy 10 - - - -
02/01:00am 27.0 E 11 15 1010.0 - 0.0 - Partly cloudy 10 - - - -
02/12:40am 27.1 E 11 15 1010.3 - 0.0 - Partly cloudy 10 - - - -
02/12:38am 27.1 E 11 16 1010.3 - 0.0 - Partly cloudy 10 - - - -
02/12:30am 27.1 E 12 17 1010.4 - 0.0 - Partly cloudy 10 - - - -
02/12:00am 27.1 E 11 16 1010.6 - 0.0 - Cloudy 10 - - - -
 
Date/Time
EST
Temp
°C
Wind Pressure Rain since
9am
mm
Weather Cloud Vis
km
Sea
Height
m
Swell
Dir  Spd
kts
Gust
kts
hPa Trend Height
m
Period
s
Dir
01/11:59pm 27.1 E 11 16 1010.6 - 0.0 - Partly cloudy 10 - - - -
01/11:30pm 27.1 E 11 15 1010.8 - 0.0 - Partly cloudy 10 - - - -
01/11:00pm 27.0 E 9 14 1010.9 - 0.0 - Partly cloudy 10 - - - -
01/10:30pm 27.2 ESE 10 15 1011.0 - 0.0 - Partly cloudy 10 - - - -
01/10:00pm 27.1 ESE 11 14 1011.0 - 0.0 - Partly cloudy 10 - - - -
01/09:30pm 27.2 ESE 10 14 1011.0 - 0.0 - Partly cloudy 10 - - - -
01/09:00pm 27.2 ESE 11 15 1010.9 - 0.0 - Partly cloudy 10 - - - -
01/08:30pm 27.3 E 12 17 1010.7 - 0.0 - Partly cloudy 10 - - - -
01/08:00pm 27.3 ESE 11 16 1010.5 - 0.0 - Partly cloudy 10 - - - -
01/07:30pm 27.5 ESE 10 13 1010.2 - 0.0 - Partly cloudy 10 - - - -
01/07:00pm 27.5 ESE 10 14 1010.0 - 0.0 - Partly cloudy 10 - - - -
01/06:30pm 27.7 ESE 11 15 1009.7 - 0.0 - Partly cloudy 10 - - - -
01/06:00pm 28.1 ESE 10 15 1009.5 - 0.0 - - 10 - - - -
01/05:30pm 28.7 ESE 12 17 1009.2 - 0.0 - - 10 - - - -
01/05:00pm 29.0 ESE 15 19 1009.2 - 0.0 - - 10 - - - -
01/04:30pm 29.0 E 14 18 1009.2 - 0.0 - - 10 - - - -
01/04:00pm 29.1 E 14 17 1009.2 - 0.0 - - 10 - - - -
01/03:30pm 29.4 ESE 13 18 1009.3 - 0.0 - - 10 - - - -
01/03:00pm 29.2 E 13 17 1009.8 - 0.0 - - 10 - - - -
01/02:30pm 30.1 E 14 18 1010.0 - 0.0 - Partly cloudy 10 - - - -
01/02:00pm 29.5 E 15 20 1010.4 - 0.0 - Partly cloudy 10 - - - -
01/01:30pm 30.5 E 13 19 1010.7 - 0.0 - Partly cloudy 10 - - - -
01/01:00pm 30.1 E 14 19 1011.1 - 0.0 - - 10 - - - -
01/12:30pm 30.3 E 14 17 1011.3 - 0.0 - - 10 - - - -
01/12:00pm 30.2 E 14 19 1011.8 - 0.0 - - 10 - - - -
01/11:30am 29.7 E 13 18 1012.2 - 0.0 - Partly cloudy 10 - - - -
01/11:00am 29.6 E 13 17 1012.6 - 0.0 - Partly cloudy 10 - - - -
01/10:30am 29.3 E 13 17 1012.6 - 0.0 - Partly cloudy 10 - - - -
01/10:00am 29.5 E 12 19 1012.7 - 0.0 - Partly cloudy 10 - - - -
01/09:30am 28.8 E 12 15 1012.7 - 0.0 - Partly cloudy 10 - - - -
01/09:00am 28.6 E 11 15 1012.7 - 0.0 - Mostly clear 10 - - - -
01/08:30am 28.0 E 10 15 1012.6 - 0.0 - - 10 - - - -
01/08:00am 27.5 ESE 9 13 1012.3 - 0.0 - Partly cloudy 10 - - - -
01/07:30am 26.5 ESE 7 9 1012.1 - 0.0 - - 10 - - - -
01/07:00am 25.1 ESE 5 7 1011.7 - 0.0 - - 10 - - - -
01/06:30am 24.1 ESE 5 6 1011.2 - 0.0 - - 10 - - - -
01/06:00am 24.1 ESE 7 9 1010.9 - 0.0 - - 10 - - - -
01/05:30am 21.9 ESE 4 5 1010.4 - 0.0 - - 10 - - - -
01/05:00am 22.1 ESE 5 6 1010.2 - 0.0 - - 10 - - - -
01/04:30am 21.9 SE 4 6 1010.0 - 0.0 - - 10 - - - -
01/04:00am 21.8 SE 4 5 1009.9 - 0.0 - - 10 - - - -
01/03:30am 23.4 ESE 4 5 1009.7 - 0.0 - - 10 - - - -
01/03:00am 24.1 SSE 6 7 1009.6 - 0.0 - - 10 - - - -
01/02:30am 22.0 CALM 0 0 1009.9 - 0.0 - - 10 - - - -
01/02:00am 22.2 CALM 0 0 1009.8 - 0.0 - - 10 - - - -
01/01:30am 23.1 SE 2 4 1010.3 - 0.0 - - 10 - - - -
01/01:00am 24.4 SE 4 5 1010.4 - 0.0 - - 10 - - - -
01/12:30am 24.7 SE 5 6 1010.6 - 0.0 - - 10 - - - -
01/12:00am 24.8 ESE 5 6 1010.9 - 0.0 - - 10 - - - -
 
Date/Time
EST
Temp
°C
Wind Pressure Rain since
9am
mm
Weather Cloud Vis
km
Sea
Height
m
Swell
Dir  Spd
kts
Gust
kts
hPa Trend Height
m
Period
s
Dir
30/11:30pm 24.9 SE 5 7 1011.0 - 0.0 - - 10 - - - -
30/11:00pm 25.4 ESE 6 8 1011.1 - 0.0 - - 10 - - - -
30/10:30pm 25.7 ESE 7 8 1011.1 - 0.0 - - 10 - - - -
30/10:00pm 25.8 ESE 8 9 1011.3 - 0.0 - - 10 - - - -
30/09:30pm 25.9 ESE 7 9 1011.0 - 0.0 - - 10 - - - -
30/09:00pm 26.2 E 9 12 1010.6 - 0.0 - Mostly clear 10 - - - -
30/08:30pm 26.3 ESE 8 10 1010.0 - 0.0 - - 10 - - - -
30/08:00pm 26.3 ESE 8 10 1009.4 - 0.0 - - 10 - - - -
30/07:30pm 26.4 E 8 9 1009.0 - 0.0 - - 10 - - - -
30/07:00pm 26.6 E 8 11 1008.8 - 0.0 - - 10 - - - -
30/06:30pm 27.1 E 9 11 1008.5 - 0.0 - - 10 - - - -
30/06:00pm 27.7 E 9 11 1008.3 - 0.0 - - 10 - - - -
30/05:30pm 27.9 E 10 13 1008.0 - 0.0 - - 10 - - - -
30/05:00pm 28.3 E 11 16 1007.6 - 0.0 - - 10 - - - -
30/04:30pm 28.8 ENE 11 15 1007.5 - 0.0 - - 10 - - - -
30/04:00pm 28.8 ENE 13 18 1007.5 - 0.0 - - 10 - - - -
30/03:30pm 29.2 E 13 18 1007.7 - 0.0 - - 10 - - - -
30/03:00pm 29.5 ENE 12 15 1008.0 - 0.0 - - 10 - - - -
30/02:30pm 29.6 ENE 13 17 1008.3 - 0.0 - - 10 - - - -
30/02:00pm 29.5 ENE 12 16 1008.5 - 0.0 - - 10 - - - -
30/01:30pm 29.9 ENE 12 17 1008.7 - 0.0 - - 10 - - - -
30/01:00pm 30.7 E 12 17 1009.2 - 0.0 - - 10 - - - -
30/12:30pm 29.4 E 13 18 1009.7 - 0.0 - - 10 - - - -
30/12:00pm 29.4 E 14 17 1010.1 - 0.0 - - 10 - - - -
30/11:30am 29.6 ENE 11 15 1010.5 - 0.0 - - 10 - - - -
30/11:00am 30.3 E 8 11 1010.8 - 0.0 - - 10 - - - -
30/10:30am 30.1 ENE 10 15 1010.9 - 0.0 - - 10 - - - -
30/10:00am 29.7 ESE 9 11 1011.2 - 0.0 - - 10 - - - -
30/09:30am 29.2 E 8 11 1011.0 - 0.0 - - 10 - - - -
30/09:00am 28.4 ESE 9 12 1011.2 - 0.0 - - 10 - - - -
30/08:30am 27.9 ESE 9 11 1011.0 - 0.0 - - 10 - - - -
30/08:00am 27.1 ESE 7 9 1010.9 - 0.0 - - 10 - - - -
30/07:30am 26.2 SE 6 8 1010.6 - 0.0 - - 10 - - - -
30/07:00am 23.7 S 1 3 1010.1 - 0.0 - - 10 - - - -
30/06:30am 22.2 CALM 0 0 1009.9 - 0.0 - - 10 - - - -
30/06:00am 22.2 CALM 0 0 1009.8 - 0.0 - - 10 - - - -
30/05:30am 22.7 S 1 4 1009.5 - 0.0 - - 10 - - - -
30/05:00am 23.2 SSE 2 4 1009.2 - 0.0 - - 10 - - - -
30/04:30am 24.1 SSE 2 5 1009.1 - 0.0 - - 10 - - - -
30/04:00am 24.1 S 4 5 1009.2 - 0.0 - - 10 - - - -
30/03:30am 24.7 SSE 3 5 1009.4 - 0.0 - Partly cloudy 10 - - - -
30/03:00am 25.0 SSE 5 6 1009.5 - 0.0 - Mostly clear 10 - - - -
30/02:30am 25.1 SSE 5 6 1009.5 - 0.0 - Partly cloudy 10 - - - -
30/02:00am 25.1 SSE 5 6 1009.5 - 0.0 - Partly cloudy 10 - - - -
30/01:30am 24.8 E 4 5 1009.5 - 0.0 - Partly cloudy 10 - - - -
30/01:00am 25.5 E 4 5 1009.9 - 0.0 - - 10 - - - -
30/12:30am 25.8 ESE 5 7 1010.3 - 0.0 - Partly cloudy 10 - - - -
30/12:00am 26.0 E 6 8 1010.6 - 0.0 - Mostly clear 10 - - - -
 
Date/Time
EST
Temp
°C
Wind Pressure Rain since
9am
mm
Weather Cloud Vis
km
Sea
Height
m
Swell
Dir  Spd
kts
Gust
kts
hPa Trend Height
m
Period
s
Dir
29/11:30pm 26.0 E 5 7 1011.2 - 0.0 - - 10 - - - -
29/11:00pm 26.5 ESE 6 8 1011.5 - 0.0 - Partly cloudy 10 - - - -
29/10:30pm 26.7 SE 7 10 1011.4 - 0.0 - Partly cloudy 10 - - - -
29/10:00pm 26.7 ESE 9 13 1011.0 - 0.0 - Partly cloudy 10 - - - -
29/09:30pm 26.7 ESE 10 14 1010.5 - 0.0 - - 10 - - - -
29/09:00pm 26.9 E 10 14 1009.8 - 0.0 - - 10 - - - -
29/08:30pm 27.0 E 11 14 1009.4 - 0.0 - - 10 - - - -
29/08:00pm 27.0 E 10 13 1009.1 - 0.0 - - 10 - - - -
29/07:30pm 27.1 ESE 10 13 1008.7 - 0.0 - - 10 - - - -
29/07:00pm 27.2 ESE 8 11 1008.5 - 0.0 - - 10 - - - -
29/06:30pm 27.4 ESE 10 14 1008.3 - 0.0 - - 10 - - - -
29/06:00pm 27.8 E 10 14 1008.0 - 0.0 - Mostly clear 10 - - - -
29/05:30pm 28.3 ESE 11 14 1007.7 - 0.0 - - 10 - - - -
29/05:00pm 28.4 E 12 15 1007.5 - 0.0 - Partly cloudy 10 - - - -
29/04:30pm 29.0 E 12 17 1007.1 - 0.0 - Partly cloudy 10 - - - -
29/04:00pm 29.1 E 12 17 1007.1 - 0.0 - Partly cloudy 10 - - - -
29/03:30pm 29.5 ESE 13 18 1007.2 - 0.0 - Partly cloudy 10 - - - -
29/03:00pm 29.6 E 14 18 1007.5 - 0.0 - Mostly clear 10 - - - -
29/02:30pm 29.6 E 15 19 1007.5 - 0.0 - Partly cloudy 10 - - - -
29/02:00pm 29.8 E 14 18 1007.8 - 0.0 - - 10 - - - -
29/01:30pm 29.9 E 15 20 1008.2 - 0.0 - - 10 - - - -
29/01:00pm 29.5 E 14 19 1008.8 - 0.0 - - 10 - - - -
29/12:30pm 29.9 E 15 19 1009.2 - 0.0 - - 10 - - - -
29/12:00pm 30.6 E 14 22 1009.7 - 0.0 - - 10 - - - -
29/11:30am 29.9 E 14 19 1009.9 - 0.0 - - 10 - - - -
29/11:00am 30.4 E 15 19 1010.3 - 0.0 - - 10 - - - -
29/10:30am 29.5 E 17 22 1010.6 - 0.0 - - 10 - - - -
29/10:00am 29.8 ESE 16 21 1010.6 - 0.0 - - 10 - - - -
29/09:30am 29.0 SE 15 19 1010.8 - 0.0 - Partly cloudy 10 - - - -
29/09:00am 28.6 SE 10 14 1010.9 - 0.0 - Partly cloudy 10 - - - -
29/08:30am 28.1 SE 10 15 1010.8 - 0.0 - - 10 - - - -

Other Formats:

Comma delimited format used in spreadsheet applications
http://www.bom.gov.au/fwo/IDQ60701/IDQ60701.94174.axf

JavaScript Object Notation format (JSON) in row-major order
http://www.bom.gov.au/fwo/IDQ60701/IDQ60701.94174.json